sensor_id;sensor_type;location;lat;lon;timestamp;temperature;humidity
11764;DHT22;5939;56.522;14.950;2023-04-22T03:16:45;16.00;95.50
11764;DHT22;5939;56.522;14.950;2023-04-22T03:19:11;8.40;96.80
11764;DHT22;5939;56.522;14.950;2023-04-22T03:21:36;8.20;96.80
11764;DHT22;5939;56.522;14.950;2023-04-22T03:24:02;8.10;96.80
11764;DHT22;5939;56.522;14.950;2023-04-22T03:26:27;8.00;96.80
11764;DHT22;5939;56.522;14.950;2023-04-22T03:28:53;8.20;96.90
11764;DHT22;5939;56.522;14.950;2023-04-22T03:31:19;8.00;96.90
11764;DHT22;5939;56.522;14.950;2023-04-22T03:33:44;8.00;96.90
11764;DHT22;5939;56.522;14.950;2023-04-22T03:36:10;8.40;97.10
11764;DHT22;5939;56.522;14.950;2023-04-22T03:38:35;7.90;97.00
11764;DHT22;5939;56.522;14.950;2023-04-22T03:41:01;8.10;97.10
11764;DHT22;5939;56.522;14.950;2023-04-22T03:43:27;8.10;97.10
11764;DHT22;5939;56.522;14.950;2023-04-22T03:45:52;7.90;97.10
11764;DHT22;5939;56.522;14.950;2023-04-22T03:48:18;7.80;97.10
11764;DHT22;5939;56.522;14.950;2023-04-22T03:50:44;7.90;97.10
11764;DHT22;5939;56.522;14.950;2023-04-22T03:53:10;7.80;97.10
11764;DHT22;5939;56.522;14.950;2023-04-22T03:55:35;8.10;97.30
11764;DHT22;5939;56.522;14.950;2023-04-22T03:58:02;7.90;97.20
11764;DHT22;5939;56.522;14.950;2023-04-22T04:00:28;8.20;97.40
11764;DHT22;5939;56.522;14.950;2023-04-22T04:02:54;8.10;97.40
11764;DHT22;5939;56.522;14.950;2023-04-22T04:05:19;7.80;97.40
11764;DHT22;5939;56.522;14.950;2023-04-22T04:07:45;7.80;97.40
11764;DHT22;5939;56.522;14.950;2023-04-22T04:10:11;7.60;97.40
11764;DHT22;5939;56.522;14.950;2023-04-22T04:12:36;7.70;97.40
11764;DHT22;5939;56.522;14.950;2023-04-22T04:15:02;7.80;97.50
11764;DHT22;5939;56.522;14.950;2023-04-22T04:17:28;7.60;97.60
11764;DHT22;5939;56.522;14.950;2023-04-22T04:19:54;7.90;97.60
11764;DHT22;5939;56.522;14.950;2023-04-22T04:22:20;7.80;97.70
11764;DHT22;5939;56.522;14.950;2023-04-22T04:24:46;7.60;97.70
11764;DHT22;5939;56.522;14.950;2023-04-22T04:27:12;7.60;97.80
11764;DHT22;5939;56.522;14.950;2023-04-22T04:29:38;7.50;97.80
11764;DHT22;5939;56.522;14.950;2023-04-22T04:32:06;7.50;97.90
11764;DHT22;5939;56.522;14.950;2023-04-22T04:34:32;7.50;97.90
11764;DHT22;5939;56.522;14.950;2023-04-22T04:36:59;7.50;98.00
11764;DHT22;5939;56.522;14.950;2023-04-22T04:39:25;7.50;98.10
11764;DHT22;5939;56.522;14.950;2023-04-22T04:41:54;7.50;98.10
11764;DHT22;5939;56.522;14.950;2023-04-22T04:44:20;7.50;98.20
11764;DHT22;5939;56.522;14.950;2023-04-22T04:46:46;7.50;98.20
11764;DHT22;5939;56.522;14.950;2023-04-22T04:49:12;7.50;98.20
11764;DHT22;5939;56.522;14.950;2023-04-22T04:51:38;7.80;98.40
11764;DHT22;5939;56.522;14.950;2023-04-22T04:54:04;7.40;98.30
11764;DHT22;5939;56.522;14.950;2023-04-22T04:56:30;7.40;98.30
11764;DHT22;5939;56.522;14.950;2023-04-22T04:58:56;7.40;98.30
11764;DHT22;5939;56.522;14.950;2023-04-22T05:01:22;7.50;98.40
11764;DHT22;5939;56.522;14.950;2023-04-22T05:03:47;7.50;98.50
11764;DHT22;5939;56.522;14.950;2023-04-22T05:06:13;7.40;98.50
11764;DHT22;5939;56.522;14.950;2023-04-22T05:08:39;7.40;98.50
11764;DHT22;5939;56.522;14.950;2023-04-22T05:11:04;7.40;98.70
11764;DHT22;5939;56.522;14.950;2023-04-22T05:13:30;7.80;98.80
11764;DHT22;5939;56.522;14.950;2023-04-22T05:15:56;8.50;99.10
11764;DHT22;5939;56.522;14.950;2023-04-22T05:18:22;7.40;98.80
11764;DHT22;5939;56.522;14.950;2023-04-22T05:20:47;7.60;98.90
11764;DHT22;5939;56.522;14.950;2023-04-22T05:23:13;7.40;98.90
11764;DHT22;5939;56.522;14.950;2023-04-22T05:25:39;7.60;99.00
11764;DHT22;5939;56.522;14.950;2023-04-22T05:28:04;7.40;99.00
11764;DHT22;5939;56.522;14.950;2023-04-22T05:30:30;7.40;99.10
11764;DHT22;5939;56.522;14.950;2023-04-22T05:32:56;7.40;99.10
11764;DHT22;5939;56.522;14.950;2023-04-22T05:35:21;7.40;99.00
11764;DHT22;5939;56.522;14.950;2023-04-22T05:37:47;7.50;99.00
11764;DHT22;5939;56.522;14.950;2023-04-22T05:40:13;7.40;98.90
11764;DHT22;5939;56.522;14.950;2023-04-22T05:42:38;7.40;98.80
11764;DHT22;5939;56.522;14.950;2023-04-22T05:45:04;7.60;98.80
11764;DHT22;5939;56.522;14.950;2023-04-22T05:47:30;7.50;98.70
11764;DHT22;5939;56.522;14.950;2023-04-22T05:49:56;7.50;98.50
11764;DHT22;5939;56.522;14.950;2023-04-22T05:52:21;7.70;98.50
11764;DHT22;5939;56.522;14.950;2023-04-22T05:54:47;7.70;98.40
11764;DHT22;5939;56.522;14.950;2023-04-22T05:57:12;7.70;98.50
11764;DHT22;5939;56.522;14.950;2023-04-22T05:59:38;8.20;98.60
11764;DHT22;5939;56.522;14.950;2023-04-22T06:02:04;8.20;98.50
11764;DHT22;5939;56.522;14.950;2023-04-22T06:04:29;8.10;98.30
11764;DHT22;5939;56.522;14.950;2023-04-22T06:06:55;8.20;97.50
11764;DHT22;5939;56.522;14.950;2023-04-22T06:09:21;8.40;97.30
11764;DHT22;5939;56.522;14.950;2023-04-22T06:11:47;8.40;96.80
11764;DHT22;5939;56.522;14.950;2023-04-22T06:14:13;8.60;96.30
11764;DHT22;5939;56.522;14.950;2023-04-22T06:16:38;8.70;95.90
11764;DHT22;5939;56.522;14.950;2023-04-22T06:19:05;8.80;96.20
11764;DHT22;5939;56.522;14.950;2023-04-22T06:21:31;9.00;96.20
11764;DHT22;5939;56.522;14.950;2023-04-22T06:24:01;9.00;96.00
11764;DHT22;5939;56.522;14.950;2023-04-22T06:26:28;9.10;95.70
11764;DHT22;5939;56.522;14.950;2023-04-22T06:28:54;9.30;96.00
11764;DHT22;5939;56.522;14.950;2023-04-22T06:31:20;9.40;96.00
11764;DHT22;5939;56.522;14.950;2023-04-22T06:33:45;9.60;96.10
11764;DHT22;5939;56.522;14.950;2023-04-22T06:36:12;9.70;96.40
11764;DHT22;5939;56.522;14.950;2023-04-22T06:38:38;9.80;96.50
11764;DHT22;5939;56.522;14.950;2023-04-22T06:41:03;10.00;96.70
11764;DHT22;5939;56.522;14.950;2023-04-22T06:43:29;10.10;96.60
11764;DHT22;5939;56.522;14.950;2023-04-22T06:45:55;10.20;96.50
11764;DHT22;5939;56.522;14.950;2023-04-22T06:48:20;10.40;96.50
11764;DHT22;5939;56.522;14.950;2023-04-22T06:50:46;10.50;96.50
11764;DHT22;5939;56.522;14.950;2023-04-22T06:53:12;10.60;96.30
11764;DHT22;5939;56.522;14.950;2023-04-22T06:55:37;10.80;96.40
11764;DHT22;5939;56.522;14.950;2023-04-22T06:58:03;10.90;96.60
11764;DHT22;5939;56.522;14.950;2023-04-22T07:00:29;11.00;96.30
11764;DHT22;5939;56.522;14.950;2023-04-22T07:02:55;11.20;96.40
11764;DHT22;5939;56.522;14.950;2023-04-22T07:05:20;11.30;96.40
11764;DHT22;5939;56.522;14.950;2023-04-22T07:07:46;11.50;96.70
11764;DHT22;5939;56.522;14.950;2023-04-22T07:10:12;11.60;96.20
11764;DHT22;5939;56.522;14.950;2023-04-22T07:12:39;11.70;96.60
11764;DHT22;5939;56.522;14.950;2023-04-22T07:15:05;11.90;96.90
11764;DHT22;5939;56.522;14.950;2023-04-22T07:17:31;12.00;96.90
11764;DHT22;5939;56.522;14.950;2023-04-22T07:19:57;12.10;96.50
11764;DHT22;5939;56.522;14.950;2023-04-22T07:22:23;12.30;96.90
11764;DHT22;5939;56.522;14.950;2023-04-22T07:24:48;12.40;96.40
11764;DHT22;5939;56.522;14.950;2023-04-22T07:27:14;12.60;96.40
11764;DHT22;5939;56.522;14.950;2023-04-22T07:29:40;12.70;96.30
11764;DHT22;5939;56.522;14.950;2023-04-22T07:32:05;12.80;96.30
11764;DHT22;5939;56.522;14.950;2023-04-22T07:34:31;13.00;96.40
11764;DHT22;5939;56.522;14.950;2023-04-22T07:36:57;13.10;96.40
11764;DHT22;5939;56.522;14.950;2023-04-22T07:39:22;13.20;96.50
11764;DHT22;5939;56.522;14.950;2023-04-22T07:41:48;13.40;96.50
11764;DHT22;5939;56.522;14.950;2023-04-22T07:44:15;13.50;96.10
11764;DHT22;5939;56.522;14.950;2023-04-22T07:46:48;13.60;96.20
11764;DHT22;5939;56.522;14.950;2023-04-22T07:49:14;13.80;96.40
11764;DHT22;5939;56.522;14.950;2023-04-22T07:51:43;13.90;96.50
11764;DHT22;5939;56.522;14.950;2023-04-22T07:54:09;14.00;96.10
11764;DHT22;5939;56.522;14.950;2023-04-22T07:56:34;14.20;96.20
11764;DHT22;5939;56.522;14.950;2023-04-22T07:59:00;14.30;96.50
11764;DHT22;5939;56.522;14.950;2023-04-22T08:01:26;14.40;96.40
11764;DHT22;5939;56.522;14.950;2023-04-22T08:03:51;14.50;96.70
11764;DHT22;5939;56.522;14.950;2023-04-22T08:06:17;14.60;96.60
11764;DHT22;5939;56.522;14.950;2023-04-22T08:08:43;14.70;96.50
11764;DHT22;5939;56.522;14.950;2023-04-22T08:11:09;14.80;96.90
11764;DHT22;5939;56.522;14.950;2023-04-22T08:13:34;15.00;96.70
11764;DHT22;5939;56.522;14.950;2023-04-22T08:16:00;15.10;96.70
11764;DHT22;5939;56.522;14.950;2023-04-22T08:18:29;15.30;96.80
11764;DHT22;5939;56.522;14.950;2023-04-22T08:20:55;15.40;96.70
11764;DHT22;5939;56.522;14.950;2023-04-22T08:23:20;15.50;96.90
11764;DHT22;5939;56.522;14.950;2023-04-22T08:25:47;15.60;96.70
11764;DHT22;5939;56.522;14.950;2023-04-22T08:28:14;15.70;96.60
11764;DHT22;5939;56.522;14.950;2023-04-22T08:30:40;15.90;96.90
11764;DHT22;5939;56.522;14.950;2023-04-22T08:33:06;16.00;97.00
11764;DHT22;5939;56.522;14.950;2023-04-22T08:35:33;16.10;96.70
11764;DHT22;5939;56.522;14.950;2023-04-22T08:38:00;16.20;96.80
11764;DHT22;5939;56.522;14.950;2023-04-22T08:40:26;16.30;96.70
11764;DHT22;5939;56.522;14.950;2023-04-22T08:42:53;16.40;96.80
11764;DHT22;5939;56.522;14.950;2023-04-22T08:45:19;16.50;97.00
11764;DHT22;5939;56.522;14.950;2023-04-22T08:47:47;16.70;97.00
11764;DHT22;5939;56.522;14.950;2023-04-22T08:50:13;16.80;97.10
11764;DHT22;5939;56.522;14.950;2023-04-22T08:52:41;16.90;97.20
11764;DHT22;5939;56.522;14.950;2023-04-22T08:55:07;17.00;97.30
11764;DHT22;5939;56.522;14.950;2023-04-22T08:57:35;17.10;97.20
11764;DHT22;5939;56.522;14.950;2023-04-22T09:00:03;17.20;97.10
11764;DHT22;5939;56.522;14.950;2023-04-22T09:02:31;17.30;97.10
11764;DHT22;5939;56.522;14.950;2023-04-22T09:04:57;17.40;97.20
11764;DHT22;5939;56.522;14.950;2023-04-22T09:07:26;17.50;97.20
11764;DHT22;5939;56.522;14.950;2023-04-22T09:09:54;17.60;96.90
11764;DHT22;5939;56.522;14.950;2023-04-22T09:12:20;17.70;97.00
11764;DHT22;5939;56.522;14.950;2023-04-22T09:14:46;17.80;97.00
11764;DHT22;5939;56.522;14.950;2023-04-22T09:17:15;17.90;96.70
11764;DHT22;5939;56.522;14.950;2023-04-22T09:19:43;18.00;96.40
11764;DHT22;5939;56.522;14.950;2023-04-22T09:22:12;18.10;96.10
11764;DHT22;5939;56.522;14.950;2023-04-22T09:24:48;18.20;96.40
11764;DHT22;5939;56.522;14.950;2023-04-22T09:27:19;18.30;96.50
11764;DHT22;5939;56.522;14.950;2023-04-22T09:29:50;18.40;96.20
11764;DHT22;5939;56.522;14.950;2023-04-22T09:32:16;18.40;96.20
11764;DHT22;5939;56.522;14.950;2023-04-22T09:34:52;18.50;95.80
11764;DHT22;5939;56.522;14.950;2023-04-22T09:37:28;18.60;96.10
11764;DHT22;5939;56.522;14.950;2023-04-22T09:39:55;18.70;96.40
11764;DHT22;5939;56.522;14.950;2023-04-22T09:42:21;18.80;96.40
11764;DHT22;5939;56.522;14.950;2023-04-22T09:44:48;18.90;96.30
11764;DHT22;5939;56.522;14.950;2023-04-22T09:47:17;19.00;96.40
11764;DHT22;5939;56.522;14.950;2023-04-22T09:49:48;19.00;96.40
11764;DHT22;5939;56.522;14.950;2023-04-22T09:52:22;19.10;96.30
11764;DHT22;5939;56.522;14.950;2023-04-22T09:54:53;19.20;96.40
11764;DHT22;5939;56.522;14.950;2023-04-22T09:57:22;19.30;96.10
11764;DHT22;5939;56.522;14.950;2023-04-22T09:59:51;19.30;95.60
11764;DHT22;5939;56.522;14.950;2023-04-22T10:02:17;19.40;95.50
11764;DHT22;5939;56.522;14.950;2023-04-22T10:04:43;19.50;95.40
11764;DHT22;5939;56.522;14.950;2023-04-22T10:07:09;19.50;95.40
11764;DHT22;5939;56.522;14.950;2023-04-22T10:09:35;19.60;95.30
11764;DHT22;5939;56.522;14.950;2023-04-22T10:12:01;19.70;95.50
11764;DHT22;5939;56.522;14.950;2023-04-22T10:14:28;19.70;95.70
11764;DHT22;5939;56.522;14.950;2023-04-22T10:16:57;19.80;95.50
11764;DHT22;5939;56.522;14.950;2023-04-22T10:19:25;19.80;95.60
11764;DHT22;5939;56.522;14.950;2023-04-22T10:22:00;19.90;95.20
11764;DHT22;5939;56.522;14.950;2023-04-22T10:24:27;20.00;95.70
11764;DHT22;5939;56.522;14.950;2023-04-22T10:26:57;20.00;94.80
11764;DHT22;5939;56.522;14.950;2023-04-22T10:29:26;20.10;95.10
11764;DHT22;5939;56.522;14.950;2023-04-22T10:32:03;20.20;95.00
11764;DHT22;5939;56.522;14.950;2023-04-22T10:34:30;20.20;95.30
11764;DHT22;5939;56.522;14.950;2023-04-22T10:37:12;20.30;95.00
11764;DHT22;5939;56.522;14.950;2023-04-22T10:39:40;20.40;95.00
11764;DHT22;5939;56.522;14.950;2023-04-22T10:42:13;20.40;95.20
11764;DHT22;5939;56.522;14.950;2023-04-22T10:44:53;20.50;95.00
11764;DHT22;5939;56.522;14.950;2023-04-22T10:50:20;20.60;93.90
11764;DHT22;5939;56.522;14.950;2023-04-22T10:56:16;20.70;94.10
11764;DHT22;5939;56.522;14.950;2023-04-22T10:58:42;20.70;94.10
11764;DHT22;5939;56.522;14.950;2023-04-22T11:01:13;20.80;94.60
11764;DHT22;5939;56.522;14.950;2023-04-22T11:03:39;20.80;94.00
11764;DHT22;5939;56.522;14.950;2023-04-22T11:06:19;20.80;93.50
11764;DHT22;5939;56.522;14.950;2023-04-22T11:08:51;20.90;93.00
11764;DHT22;5939;56.522;14.950;2023-04-22T11:11:31;20.90;93.20
11764;DHT22;5939;56.522;14.950;2023-04-22T11:13:57;20.90;93.30
11764;DHT22;5939;56.522;14.950;2023-04-22T11:16:23;21.00;92.80
11764;DHT22;5939;56.522;14.950;2023-04-22T11:18:49;21.00;93.50
11764;DHT22;5939;56.522;14.950;2023-04-22T11:21:15;21.10;93.40
11764;DHT22;5939;56.522;14.950;2023-04-22T11:23:51;21.10;93.20
11764;DHT22;5939;56.522;14.950;2023-04-22T11:26:17;21.10;93.80
11764;DHT22;5939;56.522;14.950;2023-04-22T11:28:46;21.20;93.60
11764;DHT22;5939;56.522;14.950;2023-04-22T11:31:13;21.20;94.00
11764;DHT22;5939;56.522;14.950;2023-04-22T11:33:39;21.30;93.90
11764;DHT22;5939;56.522;14.950;2023-04-22T11:36:11;21.30;94.20
11764;DHT22;5939;56.522;14.950;2023-04-22T11:38:38;21.30;94.10
11764;DHT22;5939;56.522;14.950;2023-04-22T11:41:03;21.30;94.60
11764;DHT22;5939;56.522;14.950;2023-04-22T11:43:29;21.30;94.70
11764;DHT22;5939;56.522;14.950;2023-04-22T11:45:55;21.30;94.70
11764;DHT22;5939;56.522;14.950;2023-04-22T11:48:21;21.30;94.50
11764;DHT22;5939;56.522;14.950;2023-04-22T11:50:47;21.40;94.50
11764;DHT22;5939;56.522;14.950;2023-04-22T11:53:19;21.40;93.90
11764;DHT22;5939;56.522;14.950;2023-04-22T11:55:48;21.50;94.30
11764;DHT22;5939;56.522;14.950;2023-04-22T11:58:23;21.50;94.50
11764;DHT22;5939;56.522;14.950;2023-04-22T12:00:50;21.50;94.50
11764;DHT22;5939;56.522;14.950;2023-04-22T12:03:21;21.50;94.70
11764;DHT22;5939;56.522;14.950;2023-04-22T12:05:53;21.60;94.90
11764;DHT22;5939;56.522;14.950;2023-04-22T12:08:30;21.60;94.60
11764;DHT22;5939;56.522;14.950;2023-04-22T12:11:04;21.70;93.90
11764;DHT22;5939;56.522;14.950;2023-04-22T12:16:02;21.70;94.20
11764;DHT22;5939;56.522;14.950;2023-04-22T12:18:56;21.70;93.60
11764;DHT22;5939;56.522;14.950;2023-04-22T12:21:23;21.70;93.80
11764;DHT22;5939;56.522;14.950;2023-04-22T12:23:54;21.60;94.00
11764;DHT22;5939;56.522;14.950;2023-04-22T12:26:22;21.60;94.30
11764;DHT22;5939;56.522;14.950;2023-04-22T12:28:49;21.60;94.30
11764;DHT22;5939;56.522;14.950;2023-04-22T12:31:15;21.50;93.20
11764;DHT22;5939;56.522;14.950;2023-04-22T12:33:42;21.50;92.80
11764;DHT22;5939;56.522;14.950;2023-04-22T12:36:08;21.50;92.40
11764;DHT22;5939;56.522;14.950;2023-04-22T12:38:34;21.40;92.10
11764;DHT22;5939;56.522;14.950;2023-04-22T12:41:01;21.40;92.00
11764;DHT22;5939;56.522;14.950;2023-04-22T12:43:27;21.40;92.00
11764;DHT22;5939;56.522;14.950;2023-04-22T12:45:52;21.30;92.10
11764;DHT22;5939;56.522;14.950;2023-04-22T12:48:18;21.30;92.20
11764;DHT22;5939;56.522;14.950;2023-04-22T12:50:44;21.20;92.60
11764;DHT22;5939;56.522;14.950;2023-04-22T12:53:09;21.20;93.10
11764;DHT22;5939;56.522;14.950;2023-04-22T12:55:35;21.10;93.30
11764;DHT22;5939;56.522;14.950;2023-04-22T12:58:01;21.10;93.20
11764;DHT22;5939;56.522;14.950;2023-04-22T13:00:28;21.10;93.80
11764;DHT22;5939;56.522;14.950;2023-04-22T13:02:54;21.00;93.70
11764;DHT22;5939;56.522;14.950;2023-04-22T13:05:20;20.90;93.50
11764;DHT22;5939;56.522;14.950;2023-04-22T13:07:46;20.90;93.60
11764;DHT22;5939;56.522;14.950;2023-04-22T13:10:14;20.90;93.60
11764;DHT22;5939;56.522;14.950;2023-04-22T13:12:41;20.80;93.90
11764;DHT22;5939;56.522;14.950;2023-04-22T13:15:08;20.80;94.20
11764;DHT22;5939;56.522;14.950;2023-04-22T13:17:34;20.70;93.40
11764;DHT22;5939;56.522;14.950;2023-04-22T13:20:00;20.70;93.60
11764;DHT22;5939;56.522;14.950;2023-04-22T13:22:27;20.60;93.30
11764;DHT22;5939;56.522;14.950;2023-04-22T13:24:52;20.50;93.30
11764;DHT22;5939;56.522;14.950;2023-04-22T13:27:18;20.50;93.80
11764;DHT22;5939;56.522;14.950;2023-04-22T13:29:44;20.40;93.70
11764;DHT22;5939;56.522;14.950;2023-04-22T13:32:10;20.40;93.80
11764;DHT22;5939;56.522;14.950;2023-04-22T13:34:37;20.30;93.70
11764;DHT22;5939;56.522;14.950;2023-04-22T13:37:02;20.30;93.60
11764;DHT22;5939;56.522;14.950;2023-04-22T13:39:28;20.20;94.00
11764;DHT22;5939;56.522;14.950;2023-04-22T13:41:53;20.20;94.00
11764;DHT22;5939;56.522;14.950;2023-04-22T13:44:19;20.10;93.90
11764;DHT22;5939;56.522;14.950;2023-04-22T13:46:45;20.10;94.30
11764;DHT22;5939;56.522;14.950;2023-04-22T13:49:11;20.00;94.40
11764;DHT22;5939;56.522;14.950;2023-04-22T13:51:37;20.00;94.40
11764;DHT22;5939;56.522;14.950;2023-04-22T13:54:04;19.90;94.30
11764;DHT22;5939;56.522;14.950;2023-04-22T13:56:30;19.80;94.40
11764;DHT22;5939;56.522;14.950;2023-04-22T13:58:55;19.80;94.50
11764;DHT22;5939;56.522;14.950;2023-04-22T14:01:21;19.80;94.50
11764;DHT22;5939;56.522;14.950;2023-04-22T14:03:49;19.70;94.40
11764;DHT22;5939;56.522;14.950;2023-04-22T14:06:15;19.70;94.50
11764;DHT22;5939;56.522;14.950;2023-04-22T14:08:41;19.60;94.30
11764;DHT22;5939;56.522;14.950;2023-04-22T14:11:07;19.60;94.50
11764;DHT22;5939;56.522;14.950;2023-04-22T14:13:33;19.50;94.30
11764;DHT22;5939;56.522;14.950;2023-04-22T14:15:59;19.50;94.40
11764;DHT22;5939;56.522;14.950;2023-04-22T14:18:24;19.40;94.80
11764;DHT22;5939;56.522;14.950;2023-04-22T14:20:51;19.30;94.50
11764;DHT22;5939;56.522;14.950;2023-04-22T14:23:17;19.30;94.40
11764;DHT22;5939;56.522;14.950;2023-04-22T14:25:44;19.30;94.60
11764;DHT22;5939;56.522;14.950;2023-04-22T14:28:11;19.20;94.60
11764;DHT22;5939;56.522;14.950;2023-04-22T14:30:38;19.10;94.60
11764;DHT22;5939;56.522;14.950;2023-04-22T14:33:04;19.10;94.70
11764;DHT22;5939;56.522;14.950;2023-04-22T14:35:33;19.10;94.80
11764;DHT22;5939;56.522;14.950;2023-04-22T14:38:00;19.00;94.70
11764;DHT22;5939;56.522;14.950;2023-04-22T14:40:26;18.90;94.80
11764;DHT22;5939;56.522;14.950;2023-04-22T14:42:54;18.90;94.80
11764;DHT22;5939;56.522;14.950;2023-04-22T14:45:22;18.90;94.70
11764;DHT22;5939;56.522;14.950;2023-04-22T14:47:47;18.80;94.70
11764;DHT22;5939;56.522;14.950;2023-04-22T14:50:13;18.80;94.60
11764;DHT22;5939;56.522;14.950;2023-04-22T14:52:39;18.70;94.70
11764;DHT22;5939;56.522;14.950;2023-04-22T14:55:05;18.70;94.80
11764;DHT22;5939;56.522;14.950;2023-04-22T14:57:30;18.60;94.70
11764;DHT22;5939;56.522;14.950;2023-04-22T14:59:56;18.60;94.70
11764;DHT22;5939;56.522;14.950;2023-04-22T15:02:23;18.50;94.70
11764;DHT22;5939;56.522;14.950;2023-04-22T15:04:49;18.50;94.60
11764;DHT22;5939;56.522;14.950;2023-04-22T15:07:14;18.50;94.50
11764;DHT22;5939;56.522;14.950;2023-04-22T15:09:40;18.40;94.50
11764;DHT22;5939;56.522;14.950;2023-04-22T15:12:06;18.40;94.50
11764;DHT22;5939;56.522;14.950;2023-04-22T15:14:33;18.30;94.50
11764;DHT22;5939;56.522;14.950;2023-04-22T15:17:00;18.30;94.50
11764;DHT22;5939;56.522;14.950;2023-04-22T15:19:26;18.30;94.70
11764;DHT22;5939;56.522;14.950;2023-04-22T15:21:52;18.20;94.60
11764;DHT22;5939;56.522;14.950;2023-04-22T15:24:17;18.10;94.70
11764;DHT22;5939;56.522;14.950;2023-04-22T15:26:45;18.10;95.00
11764;DHT22;5939;56.522;14.950;2023-04-22T15:29:11;18.10;94.70
11764;DHT22;5939;56.522;14.950;2023-04-22T15:31:36;18.00;94.70
11764;DHT22;5939;56.522;14.950;2023-04-22T15:34:02;18.00;94.70
11764;DHT22;5939;56.522;14.950;2023-04-22T15:36:28;17.90;94.70
11764;DHT22;5939;56.522;14.950;2023-04-22T15:38:54;17.90;94.70
11764;DHT22;5939;56.522;14.950;2023-04-22T15:41:24;17.90;94.70
11764;DHT22;5939;56.522;14.950;2023-04-22T15:43:51;17.80;94.70
11764;DHT22;5939;56.522;14.950;2023-04-22T15:46:18;17.80;94.80
11764;DHT22;5939;56.522;14.950;2023-04-22T15:48:44;17.80;94.90
11764;DHT22;5939;56.522;14.950;2023-04-22T15:51:15;17.70;94.80
11764;DHT22;5939;56.522;14.950;2023-04-22T15:53:41;17.70;94.70
11764;DHT22;5939;56.522;14.950;2023-04-22T15:56:09;17.60;94.30
11764;DHT22;5939;56.522;14.950;2023-04-22T15:58:35;17.60;94.10
11764;DHT22;5939;56.522;14.950;2023-04-22T16:01:01;17.50;94.10
11764;DHT22;5939;56.522;14.950;2023-04-22T16:03:27;17.50;94.20
11764;DHT22;5939;56.522;14.950;2023-04-22T16:05:52;17.40;94.20
11764;DHT22;5939;56.522;14.950;2023-04-22T16:08:18;17.40;94.20
11764;DHT22;5939;56.522;14.950;2023-04-22T16:10:44;17.30;94.10
11764;DHT22;5939;56.522;14.950;2023-04-22T16:13:09;17.30;94.00
11764;DHT22;5939;56.522;14.950;2023-04-22T16:15:36;17.20;94.00
11764;DHT22;5939;56.522;14.950;2023-04-22T16:18:02;17.20;93.90
11764;DHT22;5939;56.522;14.950;2023-04-22T16:20:29;17.20;94.20
11764;DHT22;5939;56.522;14.950;2023-04-22T16:22:55;17.10;94.10
11764;DHT22;5939;56.522;14.950;2023-04-22T16:25:21;17.10;94.00
11764;DHT22;5939;56.522;14.950;2023-04-22T16:27:47;17.00;94.00
11764;DHT22;5939;56.522;14.950;2023-04-22T16:30:13;17.00;93.90
11764;DHT22;5939;56.522;14.950;2023-04-22T16:32:39;17.00;94.20
11764;DHT22;5939;56.522;14.950;2023-04-22T16:35:05;16.90;94.20
11764;DHT22;5939;56.522;14.950;2023-04-22T16:37:31;16.90;94.30
11764;DHT22;5939;56.522;14.950;2023-04-22T16:39:58;16.80;94.30
11764;DHT22;5939;56.522;14.950;2023-04-22T16:42:24;16.80;94.30
11764;DHT22;5939;56.522;14.950;2023-04-22T16:44:49;16.80;94.50
11764;DHT22;5939;56.522;14.950;2023-04-22T16:47:15;16.70;94.40
11764;DHT22;5939;56.522;14.950;2023-04-22T16:49:41;16.70;94.50
11764;DHT22;5939;56.522;14.950;2023-04-22T16:52:07;16.70;94.60
11764;DHT22;5939;56.522;14.950;2023-04-22T16:54:32;16.60;94.50
11764;DHT22;5939;56.522;14.950;2023-04-22T16:56:58;16.60;94.60
11764;DHT22;5939;56.522;14.950;2023-04-22T16:59:24;16.60;94.60
11764;DHT22;5939;56.522;14.950;2023-04-22T17:01:49;16.50;94.70
11764;DHT22;5939;56.522;14.950;2023-04-22T17:04:15;16.50;94.80
11764;DHT22;5939;56.522;14.950;2023-04-22T17:06:41;16.50;94.80
11764;DHT22;5939;56.522;14.950;2023-04-22T17:09:07;16.40;94.70
11764;DHT22;5939;56.522;14.950;2023-04-22T17:11:34;16.40;94.70
11764;DHT22;5939;56.522;14.950;2023-04-22T17:13:59;16.40;94.70
11764;DHT22;5939;56.522;14.950;2023-04-22T17:16:25;16.30;94.60
11764;DHT22;5939;56.522;14.950;2023-04-22T17:18:51;16.30;94.70
11764;DHT22;5939;56.522;14.950;2023-04-22T17:21:16;16.30;94.70
11764;DHT22;5939;56.522;14.950;2023-04-22T17:23:42;16.20;94.70
11764;DHT22;5939;56.522;14.950;2023-04-22T17:26:08;16.20;94.80
11764;DHT22;5939;56.522;14.950;2023-04-22T17:28:33;16.20;94.70
11764;DHT22;5939;56.522;14.950;2023-04-22T17:30:59;16.10;94.80
11764;DHT22;5939;56.522;14.950;2023-04-22T17:33:25;16.10;94.80
11764;DHT22;5939;56.522;14.950;2023-04-22T17:35:54;16.00;94.90
11764;DHT22;5939;56.522;14.950;2023-04-22T17:38:20;16.00;94.80
11764;DHT22;5939;56.522;14.950;2023-04-22T17:40:46;16.00;94.80
11764;DHT22;5939;56.522;14.950;2023-04-22T17:43:12;15.90;94.90
11764;DHT22;5939;56.522;14.950;2023-04-22T17:45:38;15.90;94.90
11764;DHT22;5939;56.522;14.950;2023-04-22T17:48:03;15.80;94.90
11764;DHT22;5939;56.522;14.950;2023-04-22T17:50:29;15.80;95.00
11764;DHT22;5939;56.522;14.950;2023-04-22T17:52:55;15.80;95.00
11764;DHT22;5939;56.522;14.950;2023-04-22T17:55:21;15.80;95.00
11764;DHT22;5939;56.522;14.950;2023-04-22T17:57:46;15.70;95.00
11764;DHT22;5939;56.522;14.950;2023-04-22T18:00:12;15.70;94.90
11764;DHT22;5939;56.522;14.950;2023-04-22T18:02:42;15.70;94.90
11764;DHT22;5939;56.522;14.950;2023-04-22T18:05:08;15.60;94.90
11764;DHT22;5939;56.522;14.950;2023-04-22T18:07:34;15.60;95.00
11764;DHT22;5939;56.522;14.950;2023-04-22T18:10:00;15.50;94.90
11764;DHT22;5939;56.522;14.950;2023-04-22T18:12:26;15.50;95.00
11764;DHT22;5939;56.522;14.950;2023-04-22T18:14:54;15.50;94.90
11764;DHT22;5939;56.522;14.950;2023-04-22T18:17:20;15.40;95.00
11764;DHT22;5939;56.522;14.950;2023-04-22T18:19:46;15.40;94.90
11764;DHT22;5939;56.522;14.950;2023-04-22T18:22:14;15.40;95.00
11764;DHT22;5939;56.522;14.950;2023-04-22T18:24:40;15.30;94.90
11764;DHT22;5939;56.522;14.950;2023-04-22T18:27:06;15.30;94.90
11764;DHT22;5939;56.522;14.950;2023-04-22T18:29:31;15.30;94.90
11764;DHT22;5939;56.522;14.950;2023-04-22T18:31:57;15.20;95.00
11764;DHT22;5939;56.522;14.950;2023-04-22T18:34:23;15.20;95.00
11764;DHT22;5939;56.522;14.950;2023-04-22T18:36:49;15.10;94.90
11764;DHT22;5939;56.522;14.950;2023-04-22T18:39:14;15.10;94.90
11764;DHT22;5939;56.522;14.950;2023-04-22T18:41:41;15.00;94.90
11764;DHT22;5939;56.522;14.950;2023-04-22T18:44:07;15.00;94.80
11764;DHT22;5939;56.522;14.950;2023-04-22T18:46:33;15.00;94.90
11764;DHT22;5939;56.522;14.950;2023-04-22T18:48:59;14.90;94.90
11764;DHT22;5939;56.522;14.950;2023-04-22T18:51:25;14.90;94.90
11764;DHT22;5939;56.522;14.950;2023-04-22T18:53:52;14.80;94.90
11764;DHT22;5939;56.522;14.950;2023-04-22T18:56:18;14.80;94.90